createdAt,value
2018-06-30T00:01:41.886Z,55.87
2018-06-30T00:04:07.858Z,55.92
2018-06-30T00:06:33.884Z,56.57
2018-06-30T00:08:59.847Z,55.50
2018-06-30T00:11:25.863Z,56.06
2018-06-30T00:13:51.835Z,55.60
2018-06-30T00:16:17.863Z,56.54
2018-06-30T00:18:43.865Z,55.86
2018-06-30T00:21:09.853Z,55.72
2018-06-30T00:23:36.124Z,55.75
2018-06-30T00:26:02.171Z,55.92
2018-06-30T00:28:28.162Z,55.55
2018-06-30T00:30:54.111Z,56.43
2018-06-30T00:33:20.096Z,56.20
2018-06-30T00:35:46.080Z,56.24
2018-06-30T00:38:12.122Z,56.04
2018-06-30T00:40:38.041Z,56.35
2018-06-30T00:43:04.022Z,55.92
2018-06-30T00:45:30.022Z,55.93
2018-06-30T00:47:55.993Z,56.42
2018-06-30T00:50:21.992Z,56.48
2018-06-30T00:52:47.990Z,55.79
2018-06-30T00:55:13.973Z,55.84
2018-06-30T00:57:39.972Z,55.72
2018-06-30T01:00:05.944Z,55.92
2018-06-30T01:02:32.135Z,56.03
2018-06-30T01:04:58.080Z,56.06
2018-06-30T01:07:24.064Z,56.33
2018-06-30T01:09:50.045Z,56.13
2018-06-30T01:12:16.042Z,55.60
2018-06-30T01:14:42.045Z,56.03
2018-06-30T01:17:08.019Z,55.34
2018-06-30T01:19:33.984Z,55.50
2018-06-30T01:21:59.985Z,55.97
2018-06-30T01:24:25.967Z,56.01
2018-06-30T01:26:51.956Z,55.96
2018-06-30T01:29:17.944Z,56.99
2018-06-30T01:31:43.924Z,56.31
2018-06-30T01:34:09.901Z,56.49
2018-06-30T01:36:35.946Z,56.40
2018-06-30T01:39:02.174Z,56.28
2018-06-30T01:41:28.133Z,56.34
2018-06-30T01:43:54.123Z,56.49
2018-06-30T01:46:20.107Z,56.18
2018-06-30T01:48:47.151Z,55.53
2018-06-30T01:51:13.129Z,55.85
2018-06-30T01:53:39.151Z,56.23
2018-06-30T01:56:05.122Z,56.63
2018-06-30T01:58:31.143Z,56.49
2018-06-30T02:00:57.135Z,56.62
2018-06-30T02:03:23.099Z,56.24
2018-06-30T02:05:49.095Z,56.72
2018-06-30T02:08:15.119Z,56.66
2018-06-30T02:10:41.131Z,57.02
2018-06-30T02:13:07.127Z,56.84
2018-06-30T02:15:33.091Z,56.51
2018-06-30T02:17:59.067Z,56.26
2018-06-30T02:20:25.066Z,56.66
2018-06-30T02:22:51.069Z,56.03
2018-06-30T02:25:17.052Z,56.58
2018-06-30T02:27:43.028Z,55.48
2018-06-30T02:30:08.984Z,55.90
2018-06-30T02:32:35.005Z,55.94
2018-06-30T02:35:00.976Z,56.54
2018-06-30T02:37:26.964Z,56.43
2018-06-30T02:39:52.973Z,55.94
2018-06-30T02:42:18.976Z,56.27
2018-06-30T02:44:44.957Z,56.49
2018-06-30T02:47:10.965Z,55.84
2018-06-30T02:49:36.957Z,56.82
2018-06-30T02:52:03.038Z,56.76
2018-06-30T02:54:29.008Z,56.60
2018-06-30T02:56:55.001Z,57.14
2018-06-30T02:59:21.148Z,56.17
2018-06-30T03:01:47.163Z,55.95
2018-06-30T03:04:13.130Z,55.79
2018-06-30T03:06:39.107Z,56.09
2018-06-30T03:09:05.095Z,56.58
2018-06-30T03:11:31.075Z,56.48
2018-06-30T03:13:57.053Z,56.69
2018-06-30T03:16:23.019Z,56.29
2018-06-30T03:18:49.014Z,56.26
2018-06-30T03:21:14.988Z,56.20
2018-06-30T03:23:40.980Z,56.53
2018-06-30T03:26:06.961Z,55.96
2018-06-30T03:28:32.960Z,56.25
2018-06-30T03:30:58.978Z,56.42
2018-06-30T03:33:25.021Z,56.22
2018-06-30T03:35:51.064Z,56.13
2018-06-30T03:38:17.059Z,56.54
2018-06-30T03:40:43.198Z,56.17
2018-06-30T03:43:09.210Z,56.22
2018-06-30T03:45:35.240Z,56.42
2018-06-30T03:48:01.271Z,55.75
2018-06-30T03:50:27.264Z,56.38
2018-06-30T03:52:53.255Z,56.41
2018-06-30T03:55:19.760Z,56.23
2018-06-30T03:57:45.743Z,55.83
2018-06-30T04:00:11.770Z,56.06
2018-06-30T04:02:37.744Z,56.77
2018-06-30T04:05:03.754Z,56.37
2018-06-30T04:07:29.782Z,56.26
2018-06-30T04:09:55.771Z,56.17
2018-06-30T04:12:21.742Z,56.23
2018-06-30T04:14:47.733Z,55.71
2018-06-30T04:17:13.732Z,56.45
2018-06-30T04:19:39.728Z,56.96
2018-06-30T04:22:05.783Z,56.26
2018-06-30T04:24:31.752Z,56.89
2018-06-30T04:26:57.737Z,57.04
2018-06-30T04:29:23.708Z,56.91
2018-06-30T04:31:49.745Z,56.36
2018-06-30T04:34:15.707Z,57.00
2018-06-30T04:36:41.676Z,56.83
2018-06-30T04:39:07.660Z,56.11
2018-06-30T04:41:33.639Z,56.16
2018-06-30T04:43:59.625Z,56.71
2018-06-30T04:46:25.701Z,57.28
2018-06-30T04:48:51.688Z,57.17
2018-06-30T04:51:17.694Z,57.62
2018-06-30T04:53:43.658Z,56.47
2018-06-30T04:56:09.660Z,57.12
2018-06-30T04:58:35.643Z,56.58
2018-06-30T05:01:01.648Z,56.71
2018-06-30T05:03:27.636Z,56.17
2018-06-30T05:05:53.620Z,56.80
2018-06-30T05:08:19.603Z,57.21
2018-06-30T05:10:45.578Z,56.50
2018-06-30T05:13:11.550Z,56.49
2018-06-30T05:15:37.534Z,57.37
2018-06-30T05:18:03.502Z,57.05
2018-06-30T05:20:29.475Z,56.74
2018-06-30T05:22:55.480Z,56.73
2018-06-30T05:25:21.476Z,57.40
2018-06-30T05:27:47.476Z,56.80
2018-06-30T05:30:13.456Z,57.71
2018-06-30T05:32:39.508Z,56.90
2018-06-30T05:35:05.443Z,57.69
2018-06-30T05:37:31.424Z,57.09
2018-06-30T05:39:57.483Z,57.45
2018-06-30T05:42:23.452Z,56.89
2018-06-30T05:44:49.411Z,56.99
2018-06-30T05:47:15.419Z,56.37
2018-06-30T05:49:41.400Z,56.22
2018-06-30T05:52:07.384Z,56.54
2018-06-30T05:54:33.367Z,56.05
2018-06-30T05:56:59.348Z,55.53
2018-06-30T05:59:25.366Z,56.08
2018-06-30T06:01:51.336Z,55.69
2018-06-30T06:04:17.323Z,56.09
2018-06-30T06:06:43.315Z,55.59
2018-06-30T06:09:09.294Z,56.31
2018-06-30T06:11:35.327Z,55.90
2018-06-30T06:14:01.409Z,55.88
2018-06-30T06:16:27.394Z,55.56
2018-06-30T06:18:53.381Z,56.35
2018-06-30T06:21:19.351Z,56.38
2018-06-30T06:23:45.352Z,55.71
2018-06-30T06:26:11.323Z,56.06
2018-06-30T06:28:37.612Z,54.76
2018-06-30T06:31:03.598Z,55.70
2018-06-30T06:33:29.544Z,55.52
2018-06-30T06:35:55.533Z,55.87
2018-06-30T06:38:21.550Z,55.63
2018-06-30T06:40:47.534Z,55.83
2018-06-30T06:43:13.499Z,55.87
2018-06-30T06:45:39.604Z,56.44
2018-06-30T06:48:05.580Z,55.81
2018-06-30T06:50:31.584Z,56.77
2018-06-30T06:52:57.598Z,55.75
2018-06-30T06:55:23.573Z,56.53
2018-06-30T06:57:49.618Z,54.60
2018-06-30T07:00:15.633Z,55.06
2018-06-30T07:02:41.589Z,55.35
2018-06-30T07:05:07.571Z,55.21
2018-06-30T07:07:33.548Z,54.60
2018-06-30T07:09:59.543Z,55.77
2018-06-30T07:12:25.540Z,55.05
2018-06-30T07:14:51.734Z,55.31
2018-06-30T07:17:17.770Z,54.00
2018-06-30T07:19:43.758Z,54.17
2018-06-30T07:22:09.759Z,54.89
2018-06-30T07:24:35.765Z,54.41
2018-06-30T07:27:01.726Z,55.75
2018-06-30T07:29:27.719Z,56.29
2018-06-30T07:31:53.710Z,56.34
2018-06-30T07:34:19.788Z,55.29
2018-06-30T07:36:45.801Z,55.38
2018-06-30T07:39:11.812Z,55.27
2018-06-30T07:41:37.819Z,55.83
2018-06-30T07:44:03.789Z,56.71
2018-06-30T07:46:29.804Z,56.79
2018-06-30T07:48:55.796Z,56.49
2018-06-30T07:51:21.791Z,56.45
2018-06-30T07:53:47.759Z,57.41
2018-06-30T07:56:13.803Z,57.22
2018-06-30T07:58:39.843Z,57.05
2018-06-30T08:01:05.698Z,56.34
2018-06-30T08:03:31.699Z,56.31
2018-06-30T08:05:57.700Z,56.38
2018-06-30T08:08:23.708Z,56.70
2018-06-30T08:10:49.682Z,57.21
2018-06-30T08:13:15.660Z,56.74
2018-06-30T08:15:41.657Z,56.48
2018-06-30T08:18:07.638Z,56.97
2018-06-30T08:20:33.660Z,56.18
2018-06-30T08:22:59.657Z,56.43
2018-06-30T08:25:26.351Z,56.21
2018-06-30T08:27:52.332Z,56.30
2018-06-30T08:30:18.325Z,56.65
2018-06-30T08:32:44.309Z,56.23
2018-06-30T08:35:10.296Z,56.66
2018-06-30T08:37:36.272Z,56.59
2018-06-30T08:40:02.280Z,57.21
2018-06-30T08:42:28.284Z,56.51
2018-06-30T08:44:54.315Z,57.07
2018-06-30T08:47:20.316Z,56.24
2018-06-30T08:49:46.272Z,56.90
2018-06-30T08:52:12.299Z,56.37
2018-06-30T08:54:38.345Z,56.72
2018-06-30T08:57:04.323Z,57.23
2018-06-30T08:59:30.297Z,56.35
2018-06-30T09:01:56.280Z,56.91
2018-06-30T09:04:22.283Z,56.12
2018-06-30T09:06:48.258Z,56.99
2018-06-30T09:09:14.324Z,57.40
2018-06-30T09:11:40.321Z,57.00
2018-06-30T09:14:06.354Z,57.56
2018-06-30T09:16:32.353Z,57.42
2018-06-30T09:18:58.339Z,57.21
2018-06-30T09:21:24.312Z,56.04
2018-06-30T09:23:50.572Z,57.13
2018-06-30T09:26:16.562Z,57.58
2018-06-30T09:28:42.659Z,57.32
2018-06-30T09:31:08.611Z,57.78
2018-06-30T09:33:34.622Z,57.22
2018-06-30T09:36:00.598Z,57.27
2018-06-30T09:38:26.623Z,57.01
2018-06-30T09:40:52.604Z,57.75
2018-06-30T09:43:18.599Z,56.93
2018-06-30T09:45:44.563Z,56.90
2018-06-30T09:48:10.538Z,57.87
2018-06-30T09:50:36.508Z,57.83
2018-06-30T09:53:02.497Z,57.42
2018-06-30T09:55:28.493Z,58.25
2018-06-30T09:57:54.496Z,58.19
2018-06-30T10:00:20.470Z,57.69
2018-06-30T10:02:46.439Z,57.49
2018-06-30T10:05:12.403Z,57.28
2018-06-30T10:07:38.440Z,57.73
2018-06-30T10:10:04.426Z,58.04
2018-06-30T10:12:30.476Z,58.30
2018-06-30T10:14:56.675Z,57.30
2018-06-30T10:17:22.693Z,58.06
2018-06-30T10:19:48.654Z,58.00
2018-06-30T10:22:14.640Z,57.36
2018-06-30T10:24:40.627Z,57.54
2018-06-30T10:27:06.608Z,56.96
2018-06-30T10:29:32.593Z,57.04
2018-06-30T10:31:58.575Z,57.60
2018-06-30T10:34:24.600Z,57.17
2018-06-30T10:36:50.591Z,57.44
2018-06-30T10:39:16.585Z,58.11
2018-06-30T10:41:42.542Z,57.51
2018-06-30T10:44:08.516Z,57.70
2018-06-30T10:46:34.549Z,57.74
2018-06-30T10:49:02.847Z,57.29
2018-06-30T10:51:28.936Z,56.95
2018-06-30T10:53:54.908Z,58.30
2018-06-30T10:56:20.896Z,58.14
2018-06-30T10:58:46.872Z,58.36
2018-06-30T11:01:12.896Z,57.91
2018-06-30T11:03:38.873Z,58.22
2018-06-30T11:06:04.858Z,57.64
2018-06-30T11:08:31.090Z,58.19
2018-06-30T11:10:57.090Z,58.07
2018-06-30T11:13:23.887Z,57.67
2018-06-30T11:15:49.845Z,57.35
2018-06-30T11:18:15.832Z,57.47
2018-06-30T11:20:41.822Z,58.12
2018-06-30T11:23:07.783Z,58.58
2018-06-30T11:25:33.864Z,58.47
2018-06-30T11:27:59.857Z,58.01
2018-06-30T11:30:25.843Z,57.84
2018-06-30T11:32:51.829Z,57.67
2018-06-30T11:35:17.862Z,57.98
2018-06-30T11:37:43.782Z,57.94
2018-06-30T11:40:09.759Z,58.72
2018-06-30T11:42:35.758Z,58.86
2018-06-30T11:45:01.732Z,57.84
2018-06-30T11:47:27.684Z,58.32
2018-06-30T11:49:53.672Z,58.76
2018-06-30T11:52:19.744Z,58.67
2018-06-30T11:54:45.759Z,58.80
2018-06-30T11:57:11.732Z,58.13
2018-06-30T11:59:37.729Z,58.43
2018-06-30T12:02:03.700Z,58.45
2018-06-30T12:04:29.722Z,57.92
2018-06-30T12:06:55.691Z,58.37
2018-06-30T12:09:21.732Z,58.51
2018-06-30T12:11:47.657Z,58.68
2018-06-30T12:14:13.657Z,57.62
2018-06-30T12:16:39.649Z,58.91
2018-06-30T12:19:05.643Z,59.13
2018-06-30T12:21:31.633Z,58.96
2018-06-30T12:23:57.711Z,58.37
2018-06-30T12:26:23.696Z,58.45
2018-06-30T12:28:49.677Z,58.92
2018-06-30T12:31:15.655Z,58.28
2018-06-30T12:33:41.664Z,58.57
2018-06-30T12:36:07.683Z,58.65
2018-06-30T12:38:33.669Z,58.35
2018-06-30T12:40:59.639Z,58.92
2018-06-30T12:43:25.622Z,58.98
2018-06-30T12:45:51.615Z,58.24
2018-06-30T12:48:17.604Z,58.89
2018-06-30T12:50:43.575Z,58.29
2018-06-30T12:53:09.548Z,58.46
2018-06-30T12:55:35.570Z,58.53
2018-06-30T12:58:01.528Z,59.15
2018-06-30T13:00:27.516Z,58.68
2018-06-30T13:02:53.486Z,58.46
2018-06-30T13:05:19.465Z,59.10
2018-06-30T13:07:45.432Z,58.65
2018-06-30T13:10:11.450Z,58.74
2018-06-30T13:12:37.602Z,58.97
2018-06-30T13:15:03.642Z,59.10
2018-06-30T13:17:29.672Z,58.97
2018-06-30T13:19:55.704Z,58.89
2018-06-30T13:22:21.672Z,59.22
2018-06-30T13:24:47.650Z,58.20
2018-06-30T13:27:13.891Z,58.67
2018-06-30T13:29:39.858Z,57.89
2018-06-30T13:32:05.860Z,58.15
2018-06-30T13:34:31.874Z,59.05
2018-06-30T13:36:58.027Z,59.09
2018-06-30T13:39:23.983Z,59.27
2018-06-30T13:41:49.946Z,58.60
2018-06-30T13:44:16.191Z,58.31
2018-06-30T13:46:42.183Z,58.34
2018-06-30T13:49:08.176Z,58.53
2018-06-30T13:51:34.156Z,59.28
2018-06-30T13:54:00.153Z,58.15
2018-06-30T13:56:26.138Z,59.15
2018-06-30T13:58:52.173Z,58.94
2018-06-30T14:01:18.153Z,58.29
2018-06-30T14:03:44.116Z,58.53
2018-06-30T14:06:10.095Z,58.05
2018-06-30T14:08:36.077Z,58.38
2018-06-30T14:11:02.047Z,59.14
2018-06-30T14:13:28.012Z,58.48
2018-06-30T14:15:53.982Z,58.62
2018-06-30T14:18:19.980Z,58.86
2018-06-30T14:20:45.968Z,59.42
2018-06-30T14:23:11.947Z,58.31
2018-06-30T14:25:37.921Z,58.44
2018-06-30T14:28:03.928Z,58.39
2018-06-30T14:30:29.917Z,58.67
2018-06-30T14:32:55.911Z,59.15
2018-06-30T14:35:21.892Z,58.39
2018-06-30T14:37:47.859Z,58.64
2018-06-30T14:40:13.853Z,59.09
2018-06-30T14:42:39.822Z,58.87
2018-06-30T14:45:05.808Z,58.99
2018-06-30T14:47:31.812Z,58.33
2018-06-30T14:49:57.770Z,58.17
2018-06-30T14:52:23.761Z,58.70
2018-06-30T14:54:49.815Z,58.41
2018-06-30T14:57:15.806Z,59.30
2018-06-30T14:59:41.806Z,58.72
2018-06-30T15:02:07.794Z,59.05
2018-06-30T15:04:33.772Z,58.52
2018-06-30T15:06:59.794Z,58.76
2018-06-30T15:09:25.754Z,58.29
2018-06-30T15:11:51.735Z,59.02
2018-06-30T15:14:17.743Z,58.46
2018-06-30T15:16:43.748Z,59.11
2018-06-30T15:19:09.731Z,59.07
2018-06-30T15:21:35.694Z,58.74
2018-06-30T15:24:01.709Z,58.42
2018-06-30T15:26:27.673Z,58.09
2018-06-30T15:28:53.725Z,58.89
2018-06-30T15:31:19.692Z,58.54
2018-06-30T15:33:45.643Z,58.53
2018-06-30T15:36:11.777Z,58.45
2018-06-30T15:38:38.017Z,57.32
2018-06-30T15:41:03.985Z,56.93
2018-06-30T15:43:29.982Z,56.83
2018-06-30T15:45:55.971Z,57.49
2018-06-30T15:48:21.941Z,57.64
2018-06-30T15:50:47.917Z,57.99
2018-06-30T15:53:13.909Z,57.85
2018-06-30T15:55:39.881Z,57.76
2018-06-30T15:58:05.896Z,58.86
2018-06-30T16:00:31.865Z,58.39
2018-06-30T16:02:57.894Z,58.26
2018-06-30T16:05:23.919Z,58.64
2018-06-30T16:07:49.887Z,58.67
2018-06-30T16:10:15.852Z,58.25
2018-06-30T16:12:41.803Z,58.07
2018-06-30T16:15:07.773Z,57.90
2018-06-30T16:17:33.768Z,58.50
2018-06-30T16:20:00.748Z,57.60
2018-06-30T16:22:27.232Z,57.45
2018-06-30T16:24:54.070Z,57.39
2018-06-30T16:27:21.235Z,57.35
2018-06-30T16:29:47.349Z,57.60
2018-06-30T16:32:13.252Z,57.75
2018-06-30T16:34:39.215Z,57.65
2018-06-30T16:37:05.199Z,58.02
2018-06-30T16:39:31.167Z,58.48
2018-06-30T16:41:57.143Z,55.72
2018-06-30T16:44:23.145Z,58.34
2018-06-30T16:46:49.084Z,57.70
2018-06-30T16:49:15.120Z,56.53
2018-06-30T16:51:41.098Z,56.86
2018-06-30T16:54:07.066Z,55.43
2018-06-30T16:56:33.052Z,56.86
2018-06-30T16:58:59.122Z,55.89
2018-06-30T17:01:25.216Z,55.13
2018-06-30T17:03:51.206Z,55.15
2018-06-30T17:06:17.254Z,55.25
2018-06-30T17:08:43.254Z,52.36
2018-06-30T17:11:09.371Z,54.10
2018-06-30T17:13:35.346Z,54.42
2018-06-30T17:16:01.311Z,54.09
2018-06-30T17:18:27.379Z,54.14
2018-06-30T17:20:53.347Z,53.55
2018-06-30T17:23:19.356Z,52.43
2018-06-30T17:25:45.371Z,52.33
2018-06-30T17:28:11.614Z,52.56
2018-06-30T17:30:37.601Z,52.75
2018-06-30T17:33:03.640Z,50.47
2018-06-30T17:35:29.674Z,53.84
2018-06-30T17:37:55.719Z,52.83
2018-06-30T17:40:21.747Z,51.69
2018-06-30T17:42:47.750Z,50.80
2018-06-30T17:45:13.706Z,51.29
2018-06-30T17:47:39.691Z,51.10
2018-06-30T17:50:05.676Z,50.78
2018-06-30T17:52:31.636Z,50.42
2018-06-30T17:55:01.087Z,51.32
2018-06-30T17:57:27.114Z,50.81
2018-06-30T17:59:53.102Z,51.26
2018-06-30T18:02:19.074Z,47.92
2018-06-30T18:04:45.893Z,48.72
2018-06-30T18:07:14.709Z,50.31
2018-06-30T18:09:40.742Z,48.57
2018-06-30T18:12:06.729Z,46.10
2018-06-30T18:14:32.693Z,49.55
2018-06-30T18:16:58.709Z,48.73
2018-06-30T18:19:24.680Z,49.58
2018-06-30T18:21:50.679Z,46.06
2018-06-30T18:24:16.666Z,47.29
2018-06-30T18:26:42.681Z,45.73
2018-06-30T18:29:08.669Z,44.09
2018-06-30T18:31:34.637Z,42.59
2018-06-30T18:34:00.604Z,44.41
2018-06-30T18:36:26.559Z,46.79
2018-06-30T18:38:52.533Z,46.95
2018-06-30T18:41:18.579Z,44.54
2018-06-30T18:43:44.536Z,43.72
2018-06-30T18:46:10.499Z,46.33
2018-06-30T18:48:36.461Z,45.11
2018-06-30T18:51:02.519Z,48.35
2018-06-30T18:53:28.495Z,45.34
2018-06-30T18:55:54.480Z,44.33
2018-06-30T18:58:20.459Z,42.77
2018-06-30T19:00:46.436Z,44.67
2018-06-30T19:03:12.464Z,43.60
2018-06-30T19:05:38.411Z,42.51
2018-06-30T19:08:04.425Z,41.96
2018-06-30T19:10:30.465Z,45.20
2018-06-30T19:12:56.448Z,45.08
2018-06-30T19:15:22.532Z,42.34
2018-06-30T19:17:48.513Z,41.58
2018-06-30T19:20:14.499Z,43.82
2018-06-30T19:22:40.477Z,44.64
2018-06-30T19:25:06.504Z,42.07
2018-06-30T19:27:32.465Z,44.50
2018-06-30T19:29:58.455Z,40.75
2018-06-30T19:32:24.440Z,46.32
2018-06-30T19:34:50.431Z,42.51
2018-06-30T19:37:16.407Z,43.52
2018-06-30T19:39:42.383Z,42.63
2018-06-30T19:42:08.359Z,43.56
2018-06-30T19:44:34.323Z,43.55
2018-06-30T19:47:00.276Z,44.52
2018-06-30T19:49:26.250Z,42.04
2018-06-30T19:51:52.223Z,42.23
2018-06-30T19:54:18.180Z,42.30
2018-06-30T19:56:44.156Z,43.30
2018-06-30T19:59:10.119Z,41.50
2018-06-30T20:01:36.119Z,44.62
2018-06-30T20:04:02.091Z,46.51
2018-06-30T20:06:28.057Z,43.90
2018-06-30T20:08:54.011Z,41.66
2018-06-30T20:11:19.974Z,42.34
2018-06-30T20:13:45.950Z,42.31
2018-06-30T20:16:11.892Z,42.56
2018-06-30T20:18:37.868Z,41.92
2018-06-30T20:21:03.820Z,45.33
2018-06-30T20:23:29.795Z,41.62
2018-06-30T20:25:55.794Z,41.93
2018-06-30T20:28:21.766Z,42.46
2018-06-30T20:30:47.773Z,40.96
2018-06-30T20:33:13.711Z,40.21
2018-06-30T20:35:39.926Z,39.22
2018-06-30T20:38:05.963Z,40.11
2018-06-30T20:40:31.995Z,39.87
2018-06-30T20:42:57.950Z,41.63
2018-06-30T20:45:24.006Z,46.92
2018-06-30T20:47:50.022Z,42.35
2018-06-30T20:50:15.930Z,42.58
2018-06-30T20:52:41.909Z,40.01
2018-06-30T20:55:07.877Z,42.43
2018-06-30T20:57:33.880Z,42.07
2018-06-30T20:59:59.862Z,40.76
2018-06-30T21:02:25.852Z,40.12
2018-06-30T21:04:51.827Z,39.34
2018-06-30T21:07:17.801Z,40.11
2018-06-30T21:09:43.782Z,40.07
2018-06-30T21:12:09.754Z,39.70
2018-06-30T21:14:35.724Z,39.79
2018-06-30T21:17:01.716Z,38.12
2018-06-30T21:19:27.719Z,39.75
2018-06-30T21:21:53.771Z,38.83
2018-06-30T21:24:19.723Z,38.03
2018-06-30T21:26:45.730Z,39.00
2018-06-30T21:29:11.717Z,37.64
2018-06-30T21:31:37.749Z,37.70
2018-06-30T21:34:03.715Z,38.54
2018-06-30T21:36:29.776Z,38.04
2018-06-30T21:38:55.814Z,37.72
2018-06-30T21:41:21.899Z,37.77
2018-06-30T21:43:47.892Z,37.76
2018-06-30T21:46:13.855Z,37.95
2018-06-30T21:48:39.844Z,37.46
2018-06-30T21:51:05.933Z,36.26
2018-06-30T21:53:31.930Z,41.01
2018-06-30T21:55:57.916Z,38.41
2018-06-30T21:58:23.894Z,37.30
2018-06-30T22:00:49.886Z,36.79
2018-06-30T22:03:15.962Z,36.91
2018-06-30T22:05:42.080Z,36.64
2018-06-30T22:08:08.045Z,35.33
2018-06-30T22:10:34.039Z,36.08
2018-06-30T22:13:00.076Z,36.00
2018-06-30T22:15:26.065Z,34.49
2018-06-30T22:17:52.012Z,35.33
2018-06-30T22:20:17.995Z,35.89
2018-06-30T22:22:43.959Z,36.24
2018-06-30T22:25:09.961Z,34.88
2018-06-30T22:27:35.943Z,35.34
2018-06-30T22:30:01.933Z,34.80
2018-06-30T22:32:27.878Z,35.35
2018-06-30T22:34:54.199Z,38.16
2018-06-30T22:37:20.241Z,36.42
2018-06-30T22:39:46.228Z,36.47
2018-06-30T22:42:13.254Z,35.72
2018-06-30T22:44:39.227Z,35.23
2018-06-30T22:47:05.235Z,34.99
2018-06-30T22:49:31.202Z,35.30
2018-06-30T22:51:57.171Z,36.10
2018-06-30T22:54:23.188Z,34.89
2018-06-30T22:56:49.172Z,35.67
2018-06-30T22:59:15.305Z,35.30
2018-06-30T23:01:41.242Z,35.22
2018-06-30T23:04:07.266Z,35.99
2018-06-30T23:06:33.230Z,35.88
2018-06-30T23:08:59.235Z,35.42
2018-06-30T23:11:25.398Z,35.19
2018-06-30T23:13:51.484Z,34.92
2018-06-30T23:16:17.442Z,35.34
2018-06-30T23:18:43.428Z,34.96
2018-06-30T23:21:09.428Z,35.05
2018-06-30T23:23:35.445Z,35.95
2018-06-30T23:26:01.381Z,35.37
2018-06-30T23:28:27.346Z,34.96
2018-06-30T23:30:53.332Z,34.59
2018-06-30T23:33:19.312Z,34.82
2018-06-30T23:35:45.365Z,34.37
2018-06-30T23:38:11.361Z,35.31
2018-06-30T23:40:37.344Z,35.33
2018-06-30T23:43:03.299Z,34.56
2018-06-30T23:45:29.316Z,34.79
2018-06-30T23:47:55.447Z,35.23
2018-06-30T23:50:21.425Z,35.31
2018-06-30T23:52:47.413Z,35.08
2018-06-30T23:55:13.381Z,35.63
2018-06-30T23:57:39.330Z,35.29
